sensor_id;sensor_type;location;lat;lon;timestamp;temperature;humidity
1455;DHT22;721;48.168;12.818;2022-12-18T00:02:09;-2.70;42.10
1455;DHT22;721;48.168;12.818;2022-12-18T00:04:36;-2.60;36.90
1455;DHT22;721;48.168;12.818;2022-12-18T00:07:03;-2.70;37.70
1455;DHT22;721;48.168;12.818;2022-12-18T00:09:30;-2.70;38.20
1455;DHT22;721;48.168;12.818;2022-12-18T00:11:57;-2.80;36.20
1455;DHT22;721;48.168;12.818;2022-12-18T00:14:24;-2.70;37.60
1455;DHT22;721;48.168;12.818;2022-12-18T00:16:52;-2.90;37.60
1455;DHT22;721;48.168;12.818;2022-12-18T00:19:19;-2.90;40.00
1455;DHT22;721;48.168;12.818;2022-12-18T00:21:45;-3.10;42.50
1455;DHT22;721;48.168;12.818;2022-12-18T00:24:12;-3.00;42.60
1455;DHT22;721;48.168;12.818;2022-12-18T00:26:39;-3.00;43.90
1455;DHT22;721;48.168;12.818;2022-12-18T00:29:09;-2.90;40.20
1455;DHT22;721;48.168;12.818;2022-12-18T00:31:37;-2.80;39.60
1455;DHT22;721;48.168;12.818;2022-12-18T00:34:06;-3.00;40.50
1455;DHT22;721;48.168;12.818;2022-12-18T00:36:34;-3.00;42.10
1455;DHT22;721;48.168;12.818;2022-12-18T00:39:03;-3.00;43.90
1455;DHT22;721;48.168;12.818;2022-12-18T00:41:31;-3.20;44.60
1455;DHT22;721;48.168;12.818;2022-12-18T00:44:17;-3.10;43.90
1455;DHT22;721;48.168;12.818;2022-12-18T00:46:45;-3.00;42.90
1455;DHT22;721;48.168;12.818;2022-12-18T00:49:15;-3.20;43.60
1455;DHT22;721;48.168;12.818;2022-12-18T00:51:42;-3.20;43.90
1455;DHT22;721;48.168;12.818;2022-12-18T00:54:09;-3.20;43.80
1455;DHT22;721;48.168;12.818;2022-12-18T00:56:36;-3.10;43.10
1455;DHT22;721;48.168;12.818;2022-12-18T00:59:04;-3.10;44.00
1455;DHT22;721;48.168;12.818;2022-12-18T01:01:31;-3.00;41.70
1455;DHT22;721;48.168;12.818;2022-12-18T01:04:00;-2.80;40.30
1455;DHT22;721;48.168;12.818;2022-12-18T01:06:28;-2.80;39.80
1455;DHT22;721;48.168;12.818;2022-12-18T01:08:55;-2.70;38.10
1455;DHT22;721;48.168;12.818;2022-12-18T01:11:22;-2.70;38.30
1455;DHT22;721;48.168;12.818;2022-12-18T01:13:49;-2.70;37.20
1455;DHT22;721;48.168;12.818;2022-12-18T01:16:17;-2.80;38.00
1455;DHT22;721;48.168;12.818;2022-12-18T01:18:44;-2.70;35.60
1455;DHT22;721;48.168;12.818;2022-12-18T01:21:16;-2.90;38.50
1455;DHT22;721;48.168;12.818;2022-12-18T01:23:45;-3.00;38.20
1455;DHT22;721;48.168;12.818;2022-12-18T01:26:14;-2.80;39.60
1455;DHT22;721;48.168;12.818;2022-12-18T01:28:42;-2.80;34.80
1455;DHT22;721;48.168;12.818;2022-12-18T01:31:14;-3.00;37.90
1455;DHT22;721;48.168;12.818;2022-12-18T01:33:41;-2.90;37.40
1455;DHT22;721;48.168;12.818;2022-12-18T01:36:08;-3.00;36.90
1455;DHT22;721;48.168;12.818;2022-12-18T01:38:35;-3.10;38.30
1455;DHT22;721;48.168;12.818;2022-12-18T01:41:03;-3.00;38.40
1455;DHT22;721;48.168;12.818;2022-12-18T01:43:49;-2.90;35.80
1455;DHT22;721;48.168;12.818;2022-12-18T01:46:18;-3.00;35.60
1455;DHT22;721;48.168;12.818;2022-12-18T01:48:47;-3.00;34.70
1455;DHT22;721;48.168;12.818;2022-12-18T01:51:15;-3.00;33.50
1455;DHT22;721;48.168;12.818;2022-12-18T01:53:44;-3.00;36.00
1455;DHT22;721;48.168;12.818;2022-12-18T01:56:17;-3.10;35.60
1455;DHT22;721;48.168;12.818;2022-12-18T01:58:51;-3.10;36.00
1455;DHT22;721;48.168;12.818;2022-12-18T02:01:23;-3.10;34.40
1455;DHT22;721;48.168;12.818;2022-12-18T02:03:51;-3.20;34.50
1455;DHT22;721;48.168;12.818;2022-12-18T02:06:21;-3.20;34.50
1455;DHT22;721;48.168;12.818;2022-12-18T02:09:01;-3.20;35.00
1455;DHT22;721;48.168;12.818;2022-12-18T02:11:39;-3.20;35.80
1455;DHT22;721;48.168;12.818;2022-12-18T02:14:18;-3.00;34.70
1455;DHT22;721;48.168;12.818;2022-12-18T02:16:57;-3.10;34.50
1455;DHT22;721;48.168;12.818;2022-12-18T02:19:44;-3.20;34.10
1455;DHT22;721;48.168;12.818;2022-12-18T02:22:25;-3.20;33.60
1455;DHT22;721;48.168;12.818;2022-12-18T02:25:00;-3.10;32.40
1455;DHT22;721;48.168;12.818;2022-12-18T02:27:29;-3.10;30.70
1455;DHT22;721;48.168;12.818;2022-12-18T02:29:59;-3.20;32.20
1455;DHT22;721;48.168;12.818;2022-12-18T02:32:30;-3.40;32.90
1455;DHT22;721;48.168;12.818;2022-12-18T02:34:59;-3.40;32.40
1455;DHT22;721;48.168;12.818;2022-12-18T02:37:28;-3.50;33.20
1455;DHT22;721;48.168;12.818;2022-12-18T02:39:57;-3.50;34.20
1455;DHT22;721;48.168;12.818;2022-12-18T02:42:25;-3.40;32.00
1455;DHT22;721;48.168;12.818;2022-12-18T02:44:54;-3.50;32.20
1455;DHT22;721;48.168;12.818;2022-12-18T02:47:22;-3.50;32.20
1455;DHT22;721;48.168;12.818;2022-12-18T02:50:04;-3.60;31.40
1455;DHT22;721;48.168;12.818;2022-12-18T02:52:37;-3.70;33.60
1455;DHT22;721;48.168;12.818;2022-12-18T02:55:18;-3.80;34.50
1455;DHT22;721;48.168;12.818;2022-12-18T02:57:49;-3.80;36.30
1455;DHT22;721;48.168;12.818;2022-12-18T03:00:24;-3.80;34.40
1455;DHT22;721;48.168;12.818;2022-12-18T03:02:57;-3.80;37.20
1455;DHT22;721;48.168;12.818;2022-12-18T03:05:31;-3.70;34.40
1455;DHT22;721;48.168;12.818;2022-12-18T03:08:03;-3.60;34.10
1455;DHT22;721;48.168;12.818;2022-12-18T03:10:35;-3.70;33.50
1455;DHT22;721;48.168;12.818;2022-12-18T03:13:06;-3.60;32.40
1455;DHT22;721;48.168;12.818;2022-12-18T03:15:38;-3.60;32.90
1455;DHT22;721;48.168;12.818;2022-12-18T03:18:09;-3.60;32.00
1455;DHT22;721;48.168;12.818;2022-12-18T03:20:38;-3.60;30.60
1455;DHT22;721;48.168;12.818;2022-12-18T03:23:09;-3.60;31.10
1455;DHT22;721;48.168;12.818;2022-12-18T03:25:41;-3.70;31.70
1455;DHT22;721;48.168;12.818;2022-12-18T03:28:13;-3.70;29.60
1455;DHT22;721;48.168;12.818;2022-12-18T03:30:44;-3.80;31.90
1455;DHT22;721;48.168;12.818;2022-12-18T03:33:15;-3.90;32.20
1455;DHT22;721;48.168;12.818;2022-12-18T03:35:45;-4.00;31.60
1455;DHT22;721;48.168;12.818;2022-12-18T03:38:12;-4.10;34.30
1455;DHT22;721;48.168;12.818;2022-12-18T03:40:47;-4.10;32.80
1455;DHT22;721;48.168;12.818;2022-12-18T03:43:20;-4.30;35.70
1455;DHT22;721;48.168;12.818;2022-12-18T03:46:00;-4.20;37.30
1455;DHT22;721;48.168;12.818;2022-12-18T03:48:36;-4.20;34.90
1455;DHT22;721;48.168;12.818;2022-12-18T03:51:06;-4.40;35.10
1455;DHT22;721;48.168;12.818;2022-12-18T03:53:37;-4.50;36.10
1455;DHT22;721;48.168;12.818;2022-12-18T03:56:06;-4.50;40.30
1455;DHT22;721;48.168;12.818;2022-12-18T03:58:35;-4.30;38.60
1455;DHT22;721;48.168;12.818;2022-12-18T04:01:07;-4.30;37.80
1455;DHT22;721;48.168;12.818;2022-12-18T04:03:35;-4.20;37.20
1455;DHT22;721;48.168;12.818;2022-12-18T04:06:03;-4.10;37.90
1455;DHT22;721;48.168;12.818;2022-12-18T04:08:30;-4.20;37.40
1455;DHT22;721;48.168;12.818;2022-12-18T04:10:57;-4.20;38.70
1455;DHT22;721;48.168;12.818;2022-12-18T04:13:27;-4.20;36.90
1455;DHT22;721;48.168;12.818;2022-12-18T04:15:54;-4.20;36.00
1455;DHT22;721;48.168;12.818;2022-12-18T04:18:22;-4.10;36.10
1455;DHT22;721;48.168;12.818;2022-12-18T04:20:49;-4.10;36.60
1455;DHT22;721;48.168;12.818;2022-12-18T04:23:16;-4.20;36.00
1455;DHT22;721;48.168;12.818;2022-12-18T04:25:43;-4.20;37.10
1455;DHT22;721;48.168;12.818;2022-12-18T04:28:09;-4.30;37.90
1455;DHT22;721;48.168;12.818;2022-12-18T04:30:36;-4.10;39.90
1455;DHT22;721;48.168;12.818;2022-12-18T04:33:03;-4.00;36.70
1455;DHT22;721;48.168;12.818;2022-12-18T04:35:31;-3.90;33.90
1455;DHT22;721;48.168;12.818;2022-12-18T04:37:58;-3.80;34.90
1455;DHT22;721;48.168;12.818;2022-12-18T04:40:25;-3.80;34.40
1455;DHT22;721;48.168;12.818;2022-12-18T04:42:52;-3.80;33.50
1455;DHT22;721;48.168;12.818;2022-12-18T04:45:18;-3.90;33.90
1455;DHT22;721;48.168;12.818;2022-12-18T04:47:45;-3.80;38.10
1455;DHT22;721;48.168;12.818;2022-12-18T04:50:12;-3.70;34.00
1455;DHT22;721;48.168;12.818;2022-12-18T04:52:40;-3.70;32.30
1455;DHT22;721;48.168;12.818;2022-12-18T04:55:07;-3.70;33.40
1455;DHT22;721;48.168;12.818;2022-12-18T04:57:34;-3.70;31.90
1455;DHT22;721;48.168;12.818;2022-12-18T05:00:01;-4.00;34.70
1455;DHT22;721;48.168;12.818;2022-12-18T05:02:28;-3.80;35.60
1455;DHT22;721;48.168;12.818;2022-12-18T05:04:55;-3.70;32.50
1455;DHT22;721;48.168;12.818;2022-12-18T05:07:22;-3.80;34.00
1455;DHT22;721;48.168;12.818;2022-12-18T05:09:50;-3.90;35.80
1455;DHT22;721;48.168;12.818;2022-12-18T05:12:17;-3.80;36.30
1455;DHT22;721;48.168;12.818;2022-12-18T05:14:43;-3.90;36.70
1455;DHT22;721;48.168;12.818;2022-12-18T05:17:10;-3.60;36.80
1455;DHT22;721;48.168;12.818;2022-12-18T05:19:37;-3.60;34.10
1455;DHT22;721;48.168;12.818;2022-12-18T05:22:04;-3.70;33.60
1455;DHT22;721;48.168;12.818;2022-12-18T05:24:31;-3.70;34.40
1455;DHT22;721;48.168;12.818;2022-12-18T05:26:59;-3.70;34.10
1455;DHT22;721;48.168;12.818;2022-12-18T05:29:26;-3.70;34.10
1455;DHT22;721;48.168;12.818;2022-12-18T05:31:53;-3.80;33.30
1455;DHT22;721;48.168;12.818;2022-12-18T05:34:21;-3.80;34.60
1455;DHT22;721;48.168;12.818;2022-12-18T05:36:47;-3.80;34.00
1455;DHT22;721;48.168;12.818;2022-12-18T05:39:14;-3.80;35.30
1455;DHT22;721;48.168;12.818;2022-12-18T05:41:41;-3.60;34.90
1455;DHT22;721;48.168;12.818;2022-12-18T05:44:09;-3.50;33.60
1455;DHT22;721;48.168;12.818;2022-12-18T05:46:36;-3.40;32.40
1455;DHT22;721;48.168;12.818;2022-12-18T05:49:03;-3.50;32.60
1455;DHT22;721;48.168;12.818;2022-12-18T05:51:30;-3.60;33.20
1455;DHT22;721;48.168;12.818;2022-12-18T05:53:57;-3.50;34.30
1455;DHT22;721;48.168;12.818;2022-12-18T05:56:24;-3.50;33.90
1455;DHT22;721;48.168;12.818;2022-12-18T05:58:52;-3.60;33.50
1455;DHT22;721;48.168;12.818;2022-12-18T06:01:22;-3.70;35.70
1455;DHT22;721;48.168;12.818;2022-12-18T06:03:49;-3.70;35.50
1455;DHT22;721;48.168;12.818;2022-12-18T06:06:20;-3.60;35.80
1455;DHT22;721;48.168;12.818;2022-12-18T06:08:48;-3.60;34.10
1455;DHT22;721;48.168;12.818;2022-12-18T06:11:18;-3.50;32.10
1455;DHT22;721;48.168;12.818;2022-12-18T06:13:45;-3.60;33.30
1455;DHT22;721;48.168;12.818;2022-12-18T06:16:12;-3.50;34.30
1455;DHT22;721;48.168;12.818;2022-12-18T06:18:40;-3.60;33.90
1455;DHT22;721;48.168;12.818;2022-12-18T06:21:07;-3.50;33.00
1455;DHT22;721;48.168;12.818;2022-12-18T06:23:34;-3.30;32.80
1455;DHT22;721;48.168;12.818;2022-12-18T06:26:04;-3.50;31.00
1455;DHT22;721;48.168;12.818;2022-12-18T06:28:32;-3.40;31.50
1455;DHT22;721;48.168;12.818;2022-12-18T06:30:59;-3.40;32.90
1455;DHT22;721;48.168;12.818;2022-12-18T06:33:26;-3.50;32.20
1455;DHT22;721;48.168;12.818;2022-12-18T06:35:59;-3.30;31.10
1455;DHT22;721;48.168;12.818;2022-12-18T06:38:27;-3.40;29.90
1455;DHT22;721;48.168;12.818;2022-12-18T06:40:53;-3.80;32.50
1455;DHT22;721;48.168;12.818;2022-12-18T06:43:20;-3.70;33.40
1455;DHT22;721;48.168;12.818;2022-12-18T06:45:47;-3.70;35.30
1455;DHT22;721;48.168;12.818;2022-12-18T06:48:18;-3.60;32.70
1455;DHT22;721;48.168;12.818;2022-12-18T06:50:45;-3.50;32.00
1455;DHT22;721;48.168;12.818;2022-12-18T06:53:13;-3.50;30.20
1455;DHT22;721;48.168;12.818;2022-12-18T06:55:40;-3.50;30.40
1455;DHT22;721;48.168;12.818;2022-12-18T06:58:07;-3.50;31.10
1455;DHT22;721;48.168;12.818;2022-12-18T07:00:35;-3.60;31.30
1455;DHT22;721;48.168;12.818;2022-12-18T07:03:01;-3.70;30.60
1455;DHT22;721;48.168;12.818;2022-12-18T07:05:28;-3.70;30.40
1455;DHT22;721;48.168;12.818;2022-12-18T07:07:55;-3.70;32.50
1455;DHT22;721;48.168;12.818;2022-12-18T07:10:24;-3.80;31.30
1455;DHT22;721;48.168;12.818;2022-12-18T07:12:50;-3.90;31.40
1455;DHT22;721;48.168;12.818;2022-12-18T07:15:18;-4.00;32.20
1455;DHT22;721;48.168;12.818;2022-12-18T07:17:44;-4.10;33.70
1455;DHT22;721;48.168;12.818;2022-12-18T07:20:12;-3.90;34.50
1455;DHT22;721;48.168;12.818;2022-12-18T07:22:38;-3.80;31.20
1455;DHT22;721;48.168;12.818;2022-12-18T07:25:07;-3.70;29.50
1455;DHT22;721;48.168;12.818;2022-12-18T07:27:35;-3.70;26.90
1455;DHT22;721;48.168;12.818;2022-12-18T07:30:02;-3.70;26.90
1455;DHT22;721;48.168;12.818;2022-12-18T07:32:30;-3.70;26.20
1455;DHT22;721;48.168;12.818;2022-12-18T07:34:57;-3.80;26.80
1455;DHT22;721;48.168;12.818;2022-12-18T07:37:24;-4.00;26.80
1455;DHT22;721;48.168;12.818;2022-12-18T07:39:50;-3.90;27.70
1455;DHT22;721;48.168;12.818;2022-12-18T07:42:17;-3.90;26.70
1455;DHT22;721;48.168;12.818;2022-12-18T07:45:02;-3.90;25.70
1455;DHT22;721;48.168;12.818;2022-12-18T07:47:29;-3.90;26.10
1455;DHT22;721;48.168;12.818;2022-12-18T07:49:56;-4.10;26.50
1455;DHT22;721;48.168;12.818;2022-12-18T07:52:22;-4.10;26.50
1455;DHT22;721;48.168;12.818;2022-12-18T07:54:49;-4.10;25.50
1455;DHT22;721;48.168;12.818;2022-12-18T07:57:17;-3.90;24.70
1455;DHT22;721;48.168;12.818;2022-12-18T07:59:43;-4.00;24.50
1455;DHT22;721;48.168;12.818;2022-12-18T08:02:12;-4.10;25.10
1455;DHT22;721;48.168;12.818;2022-12-18T08:04:38;-4.10;25.50
1455;DHT22;721;48.168;12.818;2022-12-18T08:07:05;-4.00;24.60
1455;DHT22;721;48.168;12.818;2022-12-18T08:09:32;-4.00;23.80
1455;DHT22;721;48.168;12.818;2022-12-18T08:11:59;-4.00;23.70
1455;DHT22;721;48.168;12.818;2022-12-18T08:14:26;-4.00;24.70
1455;DHT22;721;48.168;12.818;2022-12-18T08:19:44;-4.10;23.50
1455;DHT22;721;48.168;12.818;2022-12-18T08:22:11;-4.10;25.10
1455;DHT22;721;48.168;12.818;2022-12-18T08:24:38;-4.30;25.10
1455;DHT22;721;48.168;12.818;2022-12-18T08:27:05;-4.30;25.80
1455;DHT22;721;48.168;12.818;2022-12-18T08:29:32;-4.20;25.70
1455;DHT22;721;48.168;12.818;2022-12-18T08:31:59;-4.20;26.30
1455;DHT22;721;48.168;12.818;2022-12-18T08:34:25;-4.00;25.20
1455;DHT22;721;48.168;12.818;2022-12-18T08:36:54;-4.10;25.50
1455;DHT22;721;48.168;12.818;2022-12-18T08:39:21;-4.00;25.30
1455;DHT22;721;48.168;12.818;2022-12-18T08:41:48;-4.00;24.90
1455;DHT22;721;48.168;12.818;2022-12-18T08:44:28;-3.90;25.50
1455;DHT22;721;48.168;12.818;2022-12-18T08:47:05;-3.90;25.60
1455;DHT22;721;48.168;12.818;2022-12-18T08:49:32;-3.70;25.80
1455;DHT22;721;48.168;12.818;2022-12-18T08:52:01;-3.70;23.70
1455;DHT22;721;48.168;12.818;2022-12-18T08:54:28;-3.80;25.70
1455;DHT22;721;48.168;12.818;2022-12-18T08:56:55;-3.70;26.90
1455;DHT22;721;48.168;12.818;2022-12-18T08:59:22;-3.50;26.50
1455;DHT22;721;48.168;12.818;2022-12-18T09:01:49;-3.60;27.60
1455;DHT22;721;48.168;12.818;2022-12-18T09:04:16;-3.40;28.30
1455;DHT22;721;48.168;12.818;2022-12-18T09:06:43;-3.10;27.90
1455;DHT22;721;48.168;12.818;2022-12-18T09:09:11;-3.10;25.80
1455;DHT22;721;48.168;12.818;2022-12-18T09:11:38;-3.10;27.20
1455;DHT22;721;48.168;12.818;2022-12-18T09:14:05;-3.00;27.20
1455;DHT22;721;48.168;12.818;2022-12-18T09:16:32;-3.00;26.90
1455;DHT22;721;48.168;12.818;2022-12-18T09:19:01;-2.90;26.30
1455;DHT22;721;48.168;12.818;2022-12-18T09:21:29;-2.80;25.60
1455;DHT22;721;48.168;12.818;2022-12-18T09:23:56;-2.80;25.30
1455;DHT22;721;48.168;12.818;2022-12-18T09:26:25;-2.90;24.40
1455;DHT22;721;48.168;12.818;2022-12-18T09:28:52;-2.80;23.60
1455;DHT22;721;48.168;12.818;2022-12-18T09:31:22;-2.90;24.80
1455;DHT22;721;48.168;12.818;2022-12-18T09:33:50;-2.80;23.30
1455;DHT22;721;48.168;12.818;2022-12-18T09:36:17;-2.90;25.50
1455;DHT22;721;48.168;12.818;2022-12-18T09:38:45;-2.90;24.40
1455;DHT22;721;48.168;12.818;2022-12-18T09:41:30;-2.90;26.70
1455;DHT22;721;48.168;12.818;2022-12-18T09:44:01;-3.00;26.50
1455;DHT22;721;48.168;12.818;2022-12-18T09:46:33;-2.90;27.70
1455;DHT22;721;48.168;12.818;2022-12-18T09:49:05;-2.90;27.50
1455;DHT22;721;48.168;12.818;2022-12-18T09:51:39;-2.70;26.50
1455;DHT22;721;48.168;12.818;2022-12-18T09:54:11;-2.60;24.60
1455;DHT22;721;48.168;12.818;2022-12-18T09:56:41;-2.70;26.00
1455;DHT22;721;48.168;12.818;2022-12-18T09:59:19;-2.70;27.10
1455;DHT22;721;48.168;12.818;2022-12-18T10:01:47;-2.60;26.50
1455;DHT22;721;48.168;12.818;2022-12-18T10:04:14;-2.50;25.10
1455;DHT22;721;48.168;12.818;2022-12-18T10:06:46;-2.50;24.20
1455;DHT22;721;48.168;12.818;2022-12-18T10:09:31;-2.50;23.20
1455;DHT22;721;48.168;12.818;2022-12-18T10:12:08;-2.70;24.40
1455;DHT22;721;48.168;12.818;2022-12-18T10:14:45;-3.00;27.00
1455;DHT22;721;48.168;12.818;2022-12-18T10:17:20;-3.20;27.30
1455;DHT22;721;48.168;12.818;2022-12-18T10:19:54;-3.20;27.90
1455;DHT22;721;48.168;12.818;2022-12-18T10:22:31;-3.10;26.80
1455;DHT22;721;48.168;12.818;2022-12-18T10:25:05;-3.00;28.50
1455;DHT22;721;48.168;12.818;2022-12-18T10:27:38;-2.70;27.20
1455;DHT22;721;48.168;12.818;2022-12-18T10:30:13;-2.70;26.40
1455;DHT22;721;48.168;12.818;2022-12-18T10:35:18;-2.50;23.70
1455;DHT22;721;48.168;12.818;2022-12-18T10:38:04;-2.50;23.80
1455;DHT22;721;48.168;12.818;2022-12-18T10:40:32;-2.30;22.80
1455;DHT22;721;48.168;12.818;2022-12-18T10:43:09;-2.30;22.20
1455;DHT22;721;48.168;12.818;2022-12-18T10:45:37;-2.30;21.50
1455;DHT22;721;48.168;12.818;2022-12-18T10:48:05;-2.40;21.40
1455;DHT22;721;48.168;12.818;2022-12-18T10:50:47;-2.20;20.80
1455;DHT22;721;48.168;12.818;2022-12-18T10:53:19;-2.10;19.50
1455;DHT22;721;48.168;12.818;2022-12-18T10:55:47;-2.10;19.90
1455;DHT22;721;48.168;12.818;2022-12-18T10:58:23;-2.10;19.80
1455;DHT22;721;48.168;12.818;2022-12-18T11:01:09;-2.10;20.20
1455;DHT22;721;48.168;12.818;2022-12-18T11:03:37;-1.90;18.80
1455;DHT22;721;48.168;12.818;2022-12-18T11:06:07;-1.90;18.40
1455;DHT22;721;48.168;12.818;2022-12-18T11:08:35;-1.80;18.20
1455;DHT22;721;48.168;12.818;2022-12-18T11:11:02;-1.70;18.60
1455;DHT22;721;48.168;12.818;2022-12-18T11:13:31;-1.60;17.80
1455;DHT22;721;48.168;12.818;2022-12-18T11:15:58;-1.40;17.40
1455;DHT22;721;48.168;12.818;2022-12-18T11:18:28;-1.30;16.40
1455;DHT22;721;48.168;12.818;2022-12-18T11:20:57;-1.20;15.90
1455;DHT22;721;48.168;12.818;2022-12-18T11:23:25;-1.00;14.70
1455;DHT22;721;48.168;12.818;2022-12-18T11:25:55;-1.00;15.50
1455;DHT22;721;48.168;12.818;2022-12-18T11:28:34;-0.90;14.00
1455;DHT22;721;48.168;12.818;2022-12-18T11:31:25;-0.70;12.50
1455;DHT22;721;48.168;12.818;2022-12-18T11:34:05;-0.60;12.70
1455;DHT22;721;48.168;12.818;2022-12-18T11:36:56;-0.30;11.90
1455;DHT22;721;48.168;12.818;2022-12-18T11:39:31;-0.20;10.10
1455;DHT22;721;48.168;12.818;2022-12-18T11:42:05;-0.20;8.90
1455;DHT22;721;48.168;12.818;2022-12-18T11:44:45;-0.30;11.40
1455;DHT22;721;48.168;12.818;2022-12-18T11:47:21;-0.10;9.90
1455;DHT22;721;48.168;12.818;2022-12-18T11:49:52;-0.20;10.30
1455;DHT22;721;48.168;12.818;2022-12-18T11:52:22;-0.10;9.40
1455;DHT22;721;48.168;12.818;2022-12-18T11:54:56;0.00;9.10
1455;DHT22;721;48.168;12.818;2022-12-18T11:57:33;-0.20;9.80
1455;DHT22;721;48.168;12.818;2022-12-18T12:00:11;0.10;9.50
1455;DHT22;721;48.168;12.818;2022-12-18T12:02:57;0.30;8.30
1455;DHT22;721;48.168;12.818;2022-12-18T12:05:41;0.60;5.80
1455;DHT22;721;48.168;12.818;2022-12-18T12:08:17;0.60;4.90
1455;DHT22;721;48.168;12.818;2022-12-18T12:10:52;0.50;6.40
1455;DHT22;721;48.168;12.818;2022-12-18T12:13:34;0.60;6.00
1455;DHT22;721;48.168;12.818;2022-12-18T12:16:15;0.60;6.00
1455;DHT22;721;48.168;12.818;2022-12-18T12:18:54;0.60;5.80
1455;DHT22;721;48.168;12.818;2022-12-18T12:21:27;0.80;5.50
1455;DHT22;721;48.168;12.818;2022-12-18T12:24:05;0.70;5.60
1455;DHT22;721;48.168;12.818;2022-12-18T12:26:45;1.00;4.00
1455;DHT22;721;48.168;12.818;2022-12-18T12:29:25;1.00;4.00
1455;DHT22;721;48.168;12.818;2022-12-18T12:32:05;1.30;3.70
1455;DHT22;721;48.168;12.818;2022-12-18T12:34:40;1.40;2.70
1455;DHT22;721;48.168;12.818;2022-12-18T12:37:22;1.50;2.00
1455;DHT22;721;48.168;12.818;2022-12-18T12:39:52;1.30;3.00
1455;DHT22;721;48.168;12.818;2022-12-18T12:42:29;1.60;1.10
1455;DHT22;721;48.168;12.818;2022-12-18T12:45:20;1.60;1.90
1455;DHT22;721;48.168;12.818;2022-12-18T12:47:53;1.50;2.20
1455;DHT22;721;48.168;12.818;2022-12-18T12:50:21;1.70;1.50
1455;DHT22;721;48.168;12.818;2022-12-18T12:52:51;1.80;2.00
1455;DHT22;721;48.168;12.818;2022-12-18T12:55:21;1.90;1.00
1455;DHT22;721;48.168;12.818;2022-12-18T12:57:59;1.90;1.00
1455;DHT22;721;48.168;12.818;2022-12-18T13:00:31;1.80;1.00
1455;DHT22;721;48.168;12.818;2022-12-18T13:03:23;1.80;1.00
1455;DHT22;721;48.168;12.818;2022-12-18T13:05:56;1.80;1.00
1455;DHT22;721;48.168;12.818;2022-12-18T13:08:27;2.10;1.00
1455;DHT22;721;48.168;12.818;2022-12-18T13:11:00;2.10;1.00
1455;DHT22;721;48.168;12.818;2022-12-18T13:13:49;2.30;1.00
1455;DHT22;721;48.168;12.818;2022-12-18T13:16:19;2.30;1.00
1455;DHT22;721;48.168;12.818;2022-12-18T13:18:54;1.70;1.00
1455;DHT22;721;48.168;12.818;2022-12-18T13:21:25;1.30;1.00
1455;DHT22;721;48.168;12.818;2022-12-18T13:23:56;1.40;1.00
1455;DHT22;721;48.168;12.818;2022-12-18T13:26:40;1.50;1.00
1455;DHT22;721;48.168;12.818;2022-12-18T13:29:07;1.40;1.00
1455;DHT22;721;48.168;12.818;2022-12-18T13:32:00;1.60;1.00
1455;DHT22;721;48.168;12.818;2022-12-18T13:34:30;1.70;1.00
1455;DHT22;721;48.168;12.818;2022-12-18T13:43:41;1.70;1.00
1455;DHT22;721;48.168;12.818;2022-12-18T13:46:26;1.70;1.00
1455;DHT22;721;48.168;12.818;2022-12-18T13:49:00;1.50;1.00
1455;DHT22;721;48.168;12.818;2022-12-18T13:51:32;1.30;1.00
1455;DHT22;721;48.168;12.818;2022-12-18T13:54:01;0.80;1.40
1455;DHT22;721;48.168;12.818;2022-12-18T13:56:31;0.70;1.80
1455;DHT22;721;48.168;12.818;2022-12-18T13:59:14;0.70;2.40
1455;DHT22;721;48.168;12.818;2022-12-18T14:01:46;0.80;1.10
1455;DHT22;721;48.168;12.818;2022-12-18T14:04:20;0.70;1.30
1455;DHT22;721;48.168;12.818;2022-12-18T14:06:51;0.70;1.00
1455;DHT22;721;48.168;12.818;2022-12-18T14:09:23;0.60;1.40
1455;DHT22;721;48.168;12.818;2022-12-18T14:11:52;0.20;1.90
1455;DHT22;721;48.168;12.818;2022-12-18T14:14:42;0.20;3.20
1455;DHT22;721;48.168;12.818;2022-12-18T14:17:11;0.40;2.00
1455;DHT22;721;48.168;12.818;2022-12-18T14:19:44;0.30;2.50
1455;DHT22;721;48.168;12.818;2022-12-18T14:22:16;0.20;2.20
1455;DHT22;721;48.168;12.818;2022-12-18T14:24:43;0.10;3.60
1455;DHT22;721;48.168;12.818;2022-12-18T14:27:21;0.10;3.50
1455;DHT22;721;48.168;12.818;2022-12-18T14:29:49;-0.10;3.60
1455;DHT22;721;48.168;12.818;2022-12-18T14:32:17;-0.20;4.10
1455;DHT22;721;48.168;12.818;2022-12-18T14:34:46;-0.40;4.70
1455;DHT22;721;48.168;12.818;2022-12-18T14:37:16;-0.60;5.40
1455;DHT22;721;48.168;12.818;2022-12-18T14:39:53;-0.60;6.10
1455;DHT22;721;48.168;12.818;2022-12-18T14:42:22;-0.70;6.70
1455;DHT22;721;48.168;12.818;2022-12-18T14:48:08;-1.00;8.80
1455;DHT22;721;48.168;12.818;2022-12-18T14:50:36;-1.00;8.40
1455;DHT22;721;48.168;12.818;2022-12-18T14:53:03;-1.10;9.60
1455;DHT22;721;48.168;12.818;2022-12-18T14:55:32;-1.00;9.40
1455;DHT22;721;48.168;12.818;2022-12-18T14:58:00;-1.10;9.00
1455;DHT22;721;48.168;12.818;2022-12-18T15:00:27;-1.30;10.40
1455;DHT22;721;48.168;12.818;2022-12-18T15:02:56;-1.40;11.20
1455;DHT22;721;48.168;12.818;2022-12-18T15:05:28;-1.40;10.80
1455;DHT22;721;48.168;12.818;2022-12-18T15:07:57;-1.40;11.00
1455;DHT22;721;48.168;12.818;2022-12-18T15:10:25;-1.20;11.40
1455;DHT22;721;48.168;12.818;2022-12-18T15:13:08;-1.30;11.80
1455;DHT22;721;48.168;12.818;2022-12-18T15:15:48;-1.40;10.60
1455;DHT22;721;48.168;12.818;2022-12-18T15:18:17;-1.60;11.60
1455;DHT22;721;48.168;12.818;2022-12-18T15:20:51;-1.60;11.50
1455;DHT22;721;48.168;12.818;2022-12-18T15:23:20;-1.80;12.30
1455;DHT22;721;48.168;12.818;2022-12-18T15:25:49;-1.70;12.50
1455;DHT22;721;48.168;12.818;2022-12-18T15:28:24;-1.80;12.50
1455;DHT22;721;48.168;12.818;2022-12-18T15:30:59;-1.80;11.50
1455;DHT22;721;48.168;12.818;2022-12-18T15:33:29;-1.90;12.10
1455;DHT22;721;48.168;12.818;2022-12-18T15:35:59;-2.00;12.70
1455;DHT22;721;48.168;12.818;2022-12-18T15:38:27;-2.10;13.60
1455;DHT22;721;48.168;12.818;2022-12-18T15:40:54;-2.10;13.80
1455;DHT22;721;48.168;12.818;2022-12-18T15:43:22;-2.30;14.20
1455;DHT22;721;48.168;12.818;2022-12-18T15:46:01;-2.30;14.60
1455;DHT22;721;48.168;12.818;2022-12-18T15:48:28;-2.30;14.20
1455;DHT22;721;48.168;12.818;2022-12-18T15:50:58;-2.30;14.40
1455;DHT22;721;48.168;12.818;2022-12-18T15:53:29;-2.30;14.40
1455;DHT22;721;48.168;12.818;2022-12-18T15:55:57;-2.30;14.00
1455;DHT22;721;48.168;12.818;2022-12-18T15:58:42;-2.30;13.60
1455;DHT22;721;48.168;12.818;2022-12-18T16:01:11;-2.30;13.50
1455;DHT22;721;48.168;12.818;2022-12-18T16:03:39;-2.50;14.40
1455;DHT22;721;48.168;12.818;2022-12-18T16:06:09;-2.50;14.60
1455;DHT22;721;48.168;12.818;2022-12-18T16:08:36;-2.60;15.50
1455;DHT22;721;48.168;12.818;2022-12-18T16:11:04;-2.50;13.50
1455;DHT22;721;48.168;12.818;2022-12-18T16:13:32;-2.60;14.70
1455;DHT22;721;48.168;12.818;2022-12-18T16:15:59;-2.70;14.90
1455;DHT22;721;48.168;12.818;2022-12-18T16:18:28;-2.80;15.50
1455;DHT22;721;48.168;12.818;2022-12-18T16:20:55;-2.70;15.00
1455;DHT22;721;48.168;12.818;2022-12-18T16:23:24;-2.80;14.70
1455;DHT22;721;48.168;12.818;2022-12-18T16:25:52;-2.70;14.50
1455;DHT22;721;48.168;12.818;2022-12-18T16:28:19;-2.60;14.30
1455;DHT22;721;48.168;12.818;2022-12-18T16:30:48;-2.70;14.20
1455;DHT22;721;48.168;12.818;2022-12-18T16:33:15;-2.80;13.60
1455;DHT22;721;48.168;12.818;2022-12-18T16:35:42;-2.80;14.20
1455;DHT22;721;48.168;12.818;2022-12-18T16:38:09;-2.90;14.40
1455;DHT22;721;48.168;12.818;2022-12-18T16:40:38;-2.70;14.10
1455;DHT22;721;48.168;12.818;2022-12-18T16:43:26;-2.70;12.80
1455;DHT22;721;48.168;12.818;2022-12-18T16:45:53;-2.80;13.60